AirNav   Everest Fuels
 
 1492 users online  

89TE Plaza Medical Center Heliport
Fort Worth, Texas, USA


FAA INFORMATION EFFECTIVE 25 FEBRUARY 2021

Location

FAA Identifier: 89TE
Lat/Long: 32-44-09.3100N 097-20-46.4000W
32-44.155167N 097-20.773333W
32.7359194,-97.3462222
(estimated)
Elevation: 667 ft. / 203 m (estimated)
From city: 1 mile SW of FORT WORTH, TX
Time zone: UTC +0 (year round; does not observe DST)
Zip code: 76104

Heliport Operations

Heliport use: Private use. Permission required prior to landing
Activation date: 10/2020
Control tower: no
ARTCC: FORT WORTH CENTER
FSS: FORT WORTH FLIGHT SERVICE STATION
Attendance: UNATNDD
Wind indicator: yes
Segmented circle: no

Heliport Communications

WX ASOS at FTW (5 nm N): PHONE 817-740-3346
WX AWOS-3 at FWS (10 nm S): 120.025 (817-426-4172)
WX ASOS at GKY (13 nm E): 127.375 (817-557-0251)
WX AWOS-3P at GPM (15 nm E): 118.475 (972-606-1433)
WX ASOS at AFW (15 nm N): PHONE 817-491-6188
WX ASOS at DFW (18 nm NE): PHONE 972-615-2608

Nearby radio navigation aids

VOR radial/distance  VOR name  Freq  Var
FUZr216/12.5RANGER VORTAC115.7006E
TTTr237/17.4MAVERICK VOR/DME113.1006E
CVEr241/24.1COWBOY VOR/DME116.2006E
MQPr080/32.9MILLSAP VORTAC117.7009E

 
NDB name  Hdg/Dist  Freq  Var  ID
MUFIN164/9.536508EFT ..-. -

Heliport Services

Runway Information

Helipad H1

Dimensions: 53 x 53 ft. / 16 x 16 m
Surface: mats, in good condition
Latitude: 32-44.155167N
Longitude: 097-20.773333W
Elevation: 667.0 ft.
Traffic pattern: leftleft

Heliport Ownership and Management from official FAA records

Ownership: Privately-owned
Owner: MEDICAL CITY FORT WORTH
900 EIGHTH AVENUE
FORT WORTH, TX 76104
Phone 817-347-4571
Manager: JAY GRUBBS
900 EIGHTH AVENUE
FORT WORTH, TX 76104
Phone 817-347-4571

Instrument Procedures

There are no published instrument procedures at 89TE.

Some nearby airports with instrument procedures:

KFTW - Fort Worth Meacham International Airport (5 nm N)
KNFW - Fort Worth Naval Air Station JRB (Carswell Field) Airport (5 nm NW)
KFWS - Fort Worth Spinks Airport (10 nm S)
KGKY - Arlington Municipal Airport (13 nm E)
KGPM - Grand Prairie Municipal Airport (15 nm E)
KAFW - Fort Worth Alliance Airport (15 nm N)
50F - Bourland Field Airport (15 nm SW)
4T2 - Kenneth Copeland Airport (16 nm NW)
KWEA - Parker County Airport (17 nm W)
KDFW - Dallas-Fort Worth International Airport (18 nm NE)
 
Loc | Ops | Rwys | IFR | FBO | Links
Com | Nav | Svcs | Stats | Notes
Aerial photo
No photo
 
Airport distance calculator
Flying to Plaza Medical Center Heliport? Find the distance to fly.

From to 89TE

Sunrise and sunset
Times for 03-Mar-2021
 Zulu (UTC)
Morning civil twilight12:31
Sunrise12:56
Sunset00:27
Evening civil twilight00:52

Current date and time
Zulu (UTC)  03-Mar-2021 20:42:09
 
METAR
KNFW 
6nm W 
031952Z 16009G17KT 10SM CLR 22/02 A3009 RMK AO2 SLP173 T02170022 $
KFTW 
6nm N 
031953Z 15012G17KT 10SM CLR 20/02 A3009 RMK AO2 SLP185 T02000022
KFWS 
10nm S 
031949Z 17009KT 10SM CLR 21/02 A3012
KGKY 
13nm E 
031953Z 21007KT 150V250 10SM CLR 21/02 A3010 RMK AO2 SLP190 T02110017
KAFW 
14nm N 
031953Z 18008KT 10SM CLR 21/02 A3009 RMK AO2 SLP186 T02060017 $
KGPM 
15nm E 
031950Z 15008KT 10SM SKC 19/01 A3014
KDFW 
19nm NE 
031953Z 16008KT 10SM CLR 19/01 A3009 RMK AO2 SLP187 T01940006
TAF
KNFW 
6nm W 
0307/0407 VRB06KT 9999 FEW250 QNH3005INS BECMG 0313/0315 19010KT 9999 FEW250 QNH3010INS AUTOMATED SENSOR METWATCH 0307 TIL 0312 T02/0312Z T18/0318Z FN00239
KFTW 
6nm N 
031725Z 0318/0418 19009KT P6SM SKC
KGKY 
13nm E 
031725Z 0318/0418 19009KT P6SM SKC
KAFW 
14nm N 
031725Z 0318/0418 19009KT P6SM SKC
KDFW 
19nm NE 
031725Z 0318/0424 19009KT P6SM SKC FM041800 17013KT P6SM FEW200
NOTAMs
Click for the latest NOTAMs
NOTAMs are issued by the DoD/FAA and will open in a separate window not controlled by AirNav.

 

 
 

Would you like to see your business listed on this page?

 If your business provides an interesting product or service to pilots, flight crews, aircraft, or users of the Plaza Medical Center Heliport, you should consider listing it here.  To start the listing process, click on the button below
 
Add a business
 

Other Pages about Plaza Medical Center Heliport

Update a link
 
Copyright © AirNav, LLC. All rights reserved. Privacy Policy  Contact